Time;durP1;ratioP1;P1;durP2;ratioP2;P2;SDS_P1;SDS_P2;PMS_P1;PMS_P2;Temp;Humidity;BMP_temperature;BMP_pressure;BME280_temperature;BME280_humidity;BME280_pressure;Samples;Min_cycle;Max_cycle;Signal;HPM_P1;HPM_P2
2024/02/07 00:01:03;;;;;;;11.88;6.50;;;;;;;;;;5081171;28;20047;-61
2024/02/07 00:03:35;;;;;;;9.68;5.75;;;;;;;;;;5089513;28;20053;-60
2024/02/07 00:06:02;;;;;;;13.25;6.28;;;;;;;;;;5092692;28;20059;-59
2024/02/07 00:08:28;;;;;;;11.10;7.18;;;;;;;;;;5074510;28;20063;-61
2024/02/07 00:10:55;;;;;;;11.98;6.78;;;;;;;;;;5073989;28;20060;-61
2024/02/07 00:13:31;;;;;;;13.35;6.60;;;;;;;;;;5094016;28;20051;-61
2024/02/07 00:15:58;;;;;;;15.50;8.07;;;;;;;;;;5093183;28;20056;-60
2024/02/07 00:18:26;;;;;;;11.57;7.03;;;;;;;;;;5075406;28;20051;-61
2024/02/07 00:20:54;;;;;;;12.57;8.00;;;;;;;;;;5074861;28;20048;-61
2024/02/07 00:23:21;;;;;;;18.88;10.13;;;;;;;;;;5074237;28;20637;-61
2024/02/07 00:25:47;;;;;;;15.57;9.38;;;;;;;;;;5093675;28;20063;-63
2024/02/07 00:28:20;;;;;;;13.82;9.98;;;;;;;;;;5074884;28;20056;-63
2024/02/07 00:30:49;;;;;;;11.65;7.43;;;;;;;;;;5072125;28;20051;-62
2024/02/07 00:33:17;;;;;;;13.02;9.18;;;;;;;;;;5091325;28;20058;-62
2024/02/07 00:35:44;;;;;;;13.77;9.05;;;;;;;;;;5077331;28;20048;-62
2024/02/07 00:38:14;;;;;;;13.25;8.60;;;;;;;;;;5073135;28;20602;-62
2024/02/07 00:40:41;;;;;;;14.35;8.15;;;;;;;;;;5073186;28;20063;-61
2024/02/07 00:43:07;;;;;;;14.75;9.32;;;;;;;;;;5072960;28;20483;-61
2024/02/07 00:45:34;;;;;;;13.75;8.32;;;;;;;;;;5073043;28;20060;-62
2024/02/07 00:48:02;;;;;;;20.48;11.65;;;;;;;;;;5072662;28;20068;-62
2024/02/07 00:50:29;;;;;;;13.77;8.88;;;;;;;;;;5075876;28;20518;-62
2024/02/07 00:53:02;;;;;;;14.32;7.97;;;;;;;;;;5073216;28;20063;-62
2024/02/07 00:55:30;;;;;;;14.27;8.13;;;;;;;;;;5081933;28;20055;-62
2024/02/07 00:57:57;;;;;;;11.43;7.05;;;;;;;;;;5077167;28;20053;-62
2024/02/07 01:00:25;;;;;;;11.13;8.00;;;;;;;;;;5073074;28;20047;-63
2024/02/07 01:02:52;;;;;;;12.95;8.27;;;;;;;;;;5073194;28;20072;-63
2024/02/07 01:05:19;;;;;;;12.23;7.28;;;;;;;;;;5075234;28;20058;-63
2024/02/07 01:07:51;;;;;;;14.68;7.80;;;;;;;;;;5076406;28;20052;-63
2024/02/07 01:10:45;;;;;;;8.65;6.75;;;;;;;;;;5078967;28;20074;-64
2024/02/07 01:13:13;;;;;;;12.75;8.73;;;;;;;;;;5092463;28;20055;-65
2024/02/07 01:15:40;;;;;;;13.93;8.15;;;;;;;;;;5092705;28;20545;-66
2024/02/07 01:18:07;;;;;;;18.67;9.23;;;;;;;;;;5087899;28;20063;-66
2024/02/07 01:20:34;;;;;;;12.93;8.90;;;;;;;;;;5079593;28;20058;-66
2024/02/07 01:23:01;;;;;;;14.48;7.50;;;;;;;;;;5072365;28;20138;-67
2024/02/07 01:25:28;;;;;;;13.68;8.35;;;;;;;;;;5071870;28;20446;-66
2024/02/07 01:27:55;;;;;;;14.23;7.93;;;;;;;;;;5072147;28;20056;-67
2024/02/07 01:30:23;;;;;;;14.75;8.15;;;;;;;;;;5071830;28;20056;-67
2024/02/07 01:32:50;;;;;;;16.85;8.50;;;;;;;;;;5072459;28;20522;-67
2024/02/07 01:35:17;;;;;;;14.68;7.85;;;;;;;;;;5091042;28;20056;-67
2024/02/07 01:37:46;;;;;;;13.75;7.82;;;;;;;;;;5088472;28;20055;-68
2024/02/07 01:40:13;;;;;;;13.38;9.27;;;;;;;;;;5072941;28;20063;-67
2024/02/07 01:42:40;;;;;;;12.45;7.55;;;;;;;;;;5072729;28;20052;-67
2024/02/07 01:45:21;;;;;;;17.92;8.35;;;;;;;;;;5088718;28;20367;-68
2024/02/07 01:47:50;;;;;;;12.82;6.88;;;;;;;;;;5092955;28;20498;-68
2024/02/07 01:50:17;;;;;;;14.10;6.80;;;;;;;;;;5091076;28;20056;-69
2024/02/07 01:52:46;;;;;;;10.32;6.95;;;;;;;;;;5080439;28;20052;-69
2024/02/07 01:55:13;;;;;;;11.63;6.10;;;;;;;;;;5072191;28;20063;-69
2024/02/07 01:57:41;;;;;;;12.50;7.32;;;;;;;;;;5082149;28;20055;-69
2024/02/07 02:00:08;;;;;;;9.68;6.43;;;;;;;;;;5073574;28;20048;-69
2024/02/07 02:02:37;;;;;;;11.35;7.15;;;;;;;;;;5072223;28;20483;-69
2024/02/07 02:05:05;;;;;;;9.35;6.68;;;;;;;;;;5037324;28;20045;-69
2024/02/07 02:07:32;;;;;;;11.00;6.72;;;;;;;;;;5074584;28;20048;-69
2024/02/07 02:09:59;;;;;;;15.20;7.30;;;;;;;;;;5077036;28;20052;-69
2024/02/07 02:12:27;;;;;;;15.63;7.63;;;;;;;;;;5089573;28;20040;-68
2024/02/07 02:14:55;;;;;;;12.18;7.20;;;;;;;;;;5072202;28;20079;-68
2024/02/07 02:17:22;;;;;;;8.77;5.75;;;;;;;;;;5071417;28;20067;-68
2024/02/07 02:19:50;;;;;;;10.52;5.90;;;;;;;;;;5092489;28;20070;-69
2024/02/07 02:22:46;;;;;;;11.13;6.07;;;;;;;;;;5091231;28;20055;-69
2024/02/07 02:25:30;;;;;;;11.60;7.15;;;;;;;;;;5075793;28;20056;-68
2024/02/07 02:28:01;;;;;;;13.80;6.85;;;;;;;;;;5093121;28;20059;-69
2024/02/07 02:30:34;;;;;;;13.85;7.30;;;;;;;;;;5093223;28;20078;-69
2024/02/07 02:33:08;;;;;;;10.73;6.50;;;;;;;;;;5090921;28;20048;-69
2024/02/07 02:35:36;;;;;;;13.10;6.97;;;;;;;;;;5096678;28;20059;-69
2024/02/07 02:38:03;;;;;;;8.57;6.53;;;;;;;;;;5093321;28;20052;-67
2024/02/07 02:40:31;;;;;;;8.57;5.50;;;;;;;;;;5075339;28;20076;-68
2024/02/07 02:42:59;;;;;;;7.15;5.32;;;;;;;;;;5079226;28;20044;-69
2024/02/07 02:45:29;;;;;;;17.80;5.60;;;;;;;;;;5096276;28;20055;-69
2024/02/07 02:47:58;;;;;;;9.70;6.57;;;;;;;;;;5094642;28;20059;-68
2024/02/07 02:50:27;;;;;;;11.32;7.55;;;;;;;;;;5095848;28;20051;-68
2024/02/07 02:52:58;;;;;;;14.50;7.93;;;;;;;;;;5091040;28;20045;-68
2024/02/07 02:55:25;;;;;;;14.40;7.43;;;;;;;;;;5078794;28;20422;-68
2024/02/07 02:57:55;;;;;;;17.10;9.23;;;;;;;;;;5075535;28;20060;-69
2024/02/07 03:00:22;;;;;;;15.98;8.38;;;;;;;;;;5092315;28;20402;-69
2024/02/07 03:02:49;;;;;;;16.45;9.13;;;;;;;;;;5092031;28;20056;-68
2024/02/07 03:05:37;;;;;;;11.63;7.93;;;;;;;;;;5075059;28;20052;-68
2024/02/07 03:08:16;;;;;;;14.63;9.07;;;;;;;;;;5079993;28;20051;-69
2024/02/07 03:10:43;;;;;;;12.98;7.40;;;;;;;;;;5081901;28;20052;-67
2024/02/07 03:13:12;;;;;;;14.13;8.25;;;;;;;;;;5085895;28;20059;-69
2024/02/07 03:15:39;;;;;;;14.60;9.27;;;;;;;;;;5074952;28;20048;-69
2024/02/07 03:18:06;;;;;;;18.40;10.10;;;;;;;;;;5077522;28;20052;-69
2024/02/07 03:20:35;;;;;;;13.82;7.60;;;;;;;;;;5095342;28;20063;-70
2024/02/07 03:23:00;;;;;;;6.28;3.63;;;;;;;;;;5091548;28;20056;-69
2024/02/07 03:25:27;;;;;;;7.22;3.63;;;;;;;;;;5077738;28;20048;-69
2024/02/07 03:27:54;;;;;;;5.85;2.83;;;;;;;;;;5093237;28;20048;-69
2024/02/07 03:30:22;;;;;;;10.63;2.72;;;;;;;;;;5074872;28;20491;-69
2024/02/07 03:32:49;;;;;;;7.60;2.90;;;;;;;;;;5074876;28;20388;-68
2024/02/07 03:35:16;;;;;;;6.80;2.42;;;;;;;;;;5094007;28;20055;-68
2024/02/07 03:37:44;;;;;;;4.65;2.00;;;;;;;;;;5095115;28;20052;-68
2024/02/07 03:40:14;;;;;;;5.68;2.78;;;;;;;;;;5090109;28;20056;-68
2024/02/07 03:42:41;;;;;;;7.00;2.85;;;;;;;;;;5092664;28;20052;-68
2024/02/07 03:45:09;;;;;;;4.93;1.90;;;;;;;;;;5094598;28;20056;-68
2024/02/07 03:47:39;;;;;;;6.13;2.50;;;;;;;;;;5093650;28;20181;-68
2024/02/07 03:50:10;;;;;;;8.70;3.10;;;;;;;;;;5075797;28;20119;-68
2024/02/07 03:52:38;;;;;;;6.13;2.67;;;;;;;;;;5074251;28;20049;-70
2024/02/07 03:55:08;;;;;;;10.65;3.05;;;;;;;;;;5090946;28;20066;-69
2024/02/07 03:57:35;;;;;;;10.43;3.47;;;;;;;;;;5087876;28;20060;-70
2024/02/07 04:00:07;;;;;;;6.72;3.00;;;;;;;;;;5076866;28;20449;-70
2024/02/07 04:02:37;;;;;;;16.08;4.63;;;;;;;;;;5074526;28;20197;-70
2024/02/07 04:05:05;;;;;;;15.93;5.05;;;;;;;;;;5073762;28;20063;-70
2024/02/07 04:07:32;;;;;;;18.20;5.95;;;;;;;;;;5074502;28;20048;-70
2024/02/07 04:09:59;;;;;;;18.10;6.35;;;;;;;;;;5073734;28;20123;-70
2024/02/07 05:17:21;;;;;;;9.65;3.60;;;;;;;;;;5073122;28;20102;-68
2024/02/07 05:19:48;;;;;;;9.75;4.00;;;;;;;;;;5072118;28;20057;-68
2024/02/07 05:22:16;;;;;;;13.98;4.45;;;;;;;;;;5073012;28;20056;-68
2024/02/07 05:24:44;;;;;;;13.20;5.38;;;;;;;;;;5072087;28;20053;-68
2024/02/07 05:27:12;;;;;;;8.13;4.40;;;;;;;;;;5072727;28;20053;-70
2024/02/07 05:29:39;;;;;;;12.40;4.88;;;;;;;;;;5077378;28;20064;-70
2024/02/07 05:32:07;;;;;;;11.98;4.88;;;;;;;;;;5072283;28;20407;-68
2024/02/07 05:34:35;;;;;;;12.60;4.97;;;;;;;;;;5071058;28;20431;-69
2024/02/07 05:37:02;;;;;;;13.70;5.03;;;;;;;;;;5073050;28;20057;-69
2024/02/07 05:39:31;;;;;;;13.00;5.28;;;;;;;;;;5075899;28;20479;-69
2024/02/07 05:41:58;;;;;;;15.87;5.80;;;;;;;;;;5069773;28;20052;-69
2024/02/07 05:44:25;;;;;;;16.92;6.65;;;;;;;;;;5073737;28;20834;-67
2024/02/07 05:46:52;;;;;;;11.95;5.18;;;;;;;;;;5076500;28;20067;-68
2024/02/07 05:49:18;;;;;;;9.77;3.42;;;;;;;;;;5076310;28;20441;-69
2024/02/07 05:51:57;;;;;;;12.40;3.55;;;;;;;;;;5071328;28;20052;-68
2024/02/07 05:54:24;;;;;;;9.55;2.47;;;;;;;;;;5079434;28;20044;-68
2024/02/07 05:56:51;;;;;;;9.88;2.55;;;;;;;;;;5069231;28;20495;-68
2024/02/07 05:59:18;;;;;;;9.30;2.30;;;;;;;;;;5073456;28;20423;-68
2024/02/07 06:01:45;;;;;;;12.93;3.20;;;;;;;;;;5075232;28;20056;-68
2024/02/07 06:04:12;;;;;;;9.68;2.97;;;;;;;;;;5068944;28;20486;-67
2024/02/07 06:06:38;;;;;;;10.82;2.97;;;;;;;;;;5075054;28;20380;-68
2024/02/07 06:09:07;;;;;;;9.13;3.38;;;;;;;;;;5071511;28;20057;-67
2024/02/07 06:11:34;;;;;;;9.45;3.40;;;;;;;;;;5075944;28;20055;-67
2024/02/07 06:14:02;;;;;;;14.30;4.00;;;;;;;;;;5075671;28;20052;-67
2024/02/07 06:16:29;;;;;;;10.07;4.00;;;;;;;;;;5073279;28;20528;-67
2024/02/07 06:18:56;;;;;;;12.38;4.40;;;;;;;;;;5071654;28;20502;-66
2024/02/07 06:21:23;;;;;;;14.05;4.45;;;;;;;;;;5071585;28;20048;-67
2024/02/07 06:23:50;;;;;;;12.30;4.38;;;;;;;;;;5068603;28;20063;-67
2024/02/07 06:26:18;;;;;;;13.77;4.18;;;;;;;;;;5079634;28;20060;-66
2024/02/07 06:28:45;;;;;;;17.95;4.75;;;;;;;;;;5074725;28;20048;-66
2024/02/07 06:31:12;;;;;;;16.48;4.85;;;;;;;;;;5076843;28;20491;-67
2024/02/07 06:33:39;;;;;;;18.70;5.55;;;;;;;;;;5068092;28;20052;-66
2024/02/07 06:36:06;;;;;;;17.67;5.60;;;;;;;;;;5072345;28;20288;-66
2024/02/07 06:38:33;;;;;;;21.13;6.30;;;;;;;;;;5068763;28;20499;-66
2024/02/07 06:41:00;;;;;;;17.60;5.90;;;;;;;;;;5072238;28;20506;-66
2024/02/07 06:43:28;;;;;;;16.55;5.63;;;;;;;;;;5071114;28;20059;-66
2024/02/07 06:45:55;;;;;;;14.23;5.32;;;;;;;;;;5068443;28;20086;-66
2024/02/07 06:48:22;;;;;;;15.60;5.60;;;;;;;;;;5071377;28;20505;-67
2024/02/07 06:50:50;;;;;;;13.68;5.18;;;;;;;;;;5069975;28;20412;-66
2024/02/07 06:53:17;;;;;;;16.08;5.18;;;;;;;;;;5067959;28;20056;-66
2024/02/07 06:55:43;;;;;;;15.23;5.18;;;;;;;;;;5070518;28;20048;-66
2024/02/07 06:58:10;;;;;;;12.65;5.07;;;;;;;;;;5073291;28;20065;-66
2024/02/07 07:00:39;;;;;;;13.20;5.53;;;;;;;;;;5076246;28;20059;-66
2024/02/07 07:03:05;;;;;;;13.85;5.80;;;;;;;;;;5073765;28;20060;-65
2024/02/07 07:05:32;;;;;;;14.15;5.70;;;;;;;;;;5070075;28;20044;-65
2024/02/07 07:07:59;;;;;;;11.57;5.28;;;;;;;;;;5091177;28;20545;-65
2024/02/07 07:10:26;;;;;;;12.60;4.68;;;;;;;;;;5085118;28;20053;-65
2024/02/07 07:12:53;;;;;;;13.73;4.57;;;;;;;;;;5076905;28;20044;-66
2024/02/07 07:15:21;;;;;;;9.13;4.10;;;;;;;;;;5075427;28;20057;-65
2024/02/07 07:17:49;;;;;;;8.55;3.67;;;;;;;;;;5090238;28;20067;-65
2024/02/07 07:20:15;;;;;;;9.95;4.30;;;;;;;;;;5089229;28;20514;-65
2024/02/07 07:22:42;;;;;;;8.23;3.55;;;;;;;;;;5077520;28;20052;-65
2024/02/07 07:25:09;;;;;;;11.73;3.88;;;;;;;;;;5085871;28;20059;-64
2024/02/07 07:27:36;;;;;;;12.02;3.92;;;;;;;;;;5087579;28;20059;-66
2024/02/07 07:30:03;;;;;;;8.70;3.40;;;;;;;;;;5076809;28;20044;-66
2024/02/07 07:32:30;;;;;;;9.20;4.07;;;;;;;;;;5082769;28;20059;-66
2024/02/07 07:34:58;;;;;;;9.75;3.92;;;;;;;;;;5078992;28;20056;-67
2024/02/07 07:37:25;;;;;;;8.63;3.70;;;;;;;;;;5088983;28;20048;-66
2024/02/07 07:39:52;;;;;;;7.35;3.25;;;;;;;;;;5081208;28;20053;-66
2024/02/07 07:42:19;;;;;;;7.13;2.72;;;;;;;;;;5091807;28;20047;-66
2024/02/07 07:44:46;;;;;;;11.30;3.35;;;;;;;;;;5087318;28;20048;-66
2024/02/07 07:47:12;;;;;;;10.23;3.20;;;;;;;;;;5081905;28;20501;-66
2024/02/07 07:49:39;;;;;;;8.00;2.85;;;;;;;;;;5080919;28;20055;-67
2024/02/07 07:52:08;;;;;;;8.10;2.78;;;;;;;;;;5083071;28;20059;-67
2024/02/07 07:54:37;;;;;;;7.97;3.00;;;;;;;;;;5078295;28;20484;-66
2024/02/07 07:57:04;;;;;;;7.95;2.72;;;;;;;;;;5074242;28;20060;-66
2024/02/07 07:59:31;;;;;;;6.90;2.55;;;;;;;;;;5083494;28;20055;-67
2024/02/07 08:01:58;;;;;;;5.18;2.28;;;;;;;;;;5080968;28;20053;-66
2024/02/07 08:04:25;;;;;;;6.68;2.33;;;;;;;;;;5089518;28;20040;-66
2024/02/07 08:06:51;;;;;;;6.80;2.50;;;;;;;;;;5092112;28;20047;-66
2024/02/07 08:09:20;;;;;;;4.43;2.25;;;;;;;;;;5077916;28;20403;-67
2024/02/07 08:11:47;;;;;;;4.85;2.20;;;;;;;;;;5087041;28;20052;-66
2024/02/07 08:14:14;;;;;;;7.85;2.58;;;;;;;;;;5088514;28;20048;-66
2024/02/07 08:16:43;;;;;;;4.38;2.22;;;;;;;;;;5082378;28;20064;-66
2024/02/07 08:19:12;;;;;;;7.65;2.53;;;;;;;;;;5073938;28;20498;-66
2024/02/07 08:21:39;;;;;;;5.72;2.75;;;;;;;;;;5087229;28;20075;-66
2024/02/07 08:24:06;;;;;;;9.10;2.75;;;;;;;;;;5079650;28;20051;-66
2024/02/07 08:26:34;;;;;;;7.45;2.95;;;;;;;;;;5090965;28;20053;-66
2024/02/07 08:29:01;;;;;;;8.40;3.10;;;;;;;;;;5093609;28;20052;-66
2024/02/07 08:31:28;;;;;;;6.78;3.13;;;;;;;;;;5078836;28;20059;-67
2024/02/07 08:33:55;;;;;;;8.15;3.30;;;;;;;;;;5080794;28;20056;-67
2024/02/07 08:36:22;;;;;;;6.22;2.78;;;;;;;;;;5086339;28;20418;-66
2024/02/07 08:38:49;;;;;;;7.68;3.28;;;;;;;;;;5082137;28;20071;-67
2024/02/07 08:41:16;;;;;;;9.45;3.80;;;;;;;;;;5080613;28;20051;-68
2024/02/07 08:43:44;;;;;;;6.07;2.80;;;;;;;;;;5078374;28;20048;-67
2024/02/07 08:46:11;;;;;;;6.68;2.92;;;;;;;;;;5073911;28;20056;-67
2024/02/07 08:48:38;;;;;;;6.47;2.78;;;;;;;;;;5077091;28;20063;-67
2024/02/07 08:51:05;;;;;;;6.25;2.92;;;;;;;;;;5078551;28;20044;-67
2024/02/07 08:53:32;;;;;;;6.88;3.13;;;;;;;;;;5093273;28;20055;-67
2024/02/07 08:55:58;;;;;;;7.32;3.40;;;;;;;;;;5088621;28;20174;-67
2024/02/07 08:58:25;;;;;;;6.93;3.15;;;;;;;;;;5073802;28;20048;-67
2024/02/07 09:00:53;;;;;;;5.95;3.25;;;;;;;;;;5076700;28;20437;-67
2024/02/07 09:03:20;;;;;;;5.65;3.35;;;;;;;;;;5073417;28;20083;-67
2024/02/07 09:05:47;;;;;;;7.20;3.08;;;;;;;;;;5073663;28;20059;-67
2024/02/07 09:08:14;;;;;;;5.78;2.88;;;;;;;;;;5091693;28;20054;-67
2024/02/07 09:10:41;;;;;;;6.25;3.42;;;;;;;;;;5074200;28;20431;-66
2024/02/07 09:13:08;;;;;;;5.63;2.70;;;;;;;;;;5088561;28;20059;-66
2024/02/07 09:15:35;;;;;;;5.50;2.63;;;;;;;;;;5087180;28;20052;-67
2024/02/07 09:18:03;;;;;;;7.88;3.42;;;;;;;;;;5072128;28;20075;-66
2024/02/07 09:20:30;;;;;;;6.45;3.58;;;;;;;;;;5072813;28;20403;-67
2024/02/07 09:22:57;;;;;;;7.43;3.58;;;;;;;;;;5090330;28;20066;-67
2024/02/07 09:25:25;;;;;;;9.48;4.97;;;;;;;;;;5083459;28;20403;-67
2024/02/07 09:27:52;;;;;;;8.15;3.65;;;;;;;;;;5090682;28;20063;-67
2024/02/07 09:30:19;;;;;;;7.53;3.70;;;;;;;;;;5073102;28;20063;-66
2024/02/07 09:32:46;;;;;;;6.13;3.03;;;;;;;;;;5075694;28;20060;-66
2024/02/07 09:35:14;;;;;;;7.65;2.88;;;;;;;;;;5087105;28;20045;-66
2024/02/07 09:37:41;;;;;;;8.23;3.08;;;;;;;;;;5092264;28;20052;-66
2024/02/07 09:40:08;;;;;;;8.15;3.40;;;;;;;;;;5087645;28;20055;-67
2024/02/07 09:42:37;;;;;;;7.43;3.80;;;;;;;;;;5089617;28;20044;-66
2024/02/07 09:45:05;;;;;;;8.43;4.00;;;;;;;;;;5072309;28;20071;-66
2024/02/07 09:47:33;;;;;;;9.43;4.40;;;;;;;;;;5075498;28;20396;-67
2024/02/07 09:50:00;;;;;;;8.98;4.25;;;;;;;;;;5072405;28;20052;-66
2024/02/07 09:52:29;;;;;;;10.15;4.82;;;;;;;;;;5079346;28;20063;-66
2024/02/07 09:54:58;;;;;;;7.68;5.15;;;;;;;;;;5090500;28;20048;-66
2024/02/07 09:57:26;;;;;;;13.70;5.68;;;;;;;;;;5090167;28;20051;-66
2024/02/07 09:59:53;;;;;;;14.68;6.28;;;;;;;;;;5084328;28;20045;-66
2024/02/07 10:02:20;;;;;;;12.13;6.13;;;;;;;;;;5078568;28;20055;-66
2024/02/07 10:04:50;;;;;;;12.43;5.72;;;;;;;;;;5091655;28;20048;-66
2024/02/07 10:07:18;;;;;;;15.30;5.80;;;;;;;;;;5092658;28;20048;-67
2024/02/07 10:09:47;;;;;;;15.45;6.95;;;;;;;;;;5090233;28;20056;-64
2024/02/07 10:12:14;;;;;;;13.50;6.57;;;;;;;;;;5081541;28;20534;-65
2024/02/07 10:14:41;;;;;;;11.90;7.20;;;;;;;;;;5086792;28;20494;-64
2024/02/07 10:17:08;;;;;;;13.48;7.18;;;;;;;;;;5077387;28;20060;-64
2024/02/07 10:19:35;;;;;;;19.80;7.53;;;;;;;;;;5085885;28;20048;-64
2024/02/07 10:22:13;;;;;;;16.08;7.50;;;;;;;;;;5077746;28;20068;-65
2024/02/07 10:24:40;;;;;;;16.73;7.60;;;;;;;;;;5083814;28;20395;-64
2024/02/07 10:27:08;;;;;;;16.80;7.97;;;;;;;;;;5073301;28;20055;-64
2024/02/07 10:29:35;;;;;;;13.80;7.55;;;;;;;;;;5072005;28;20411;-62
2024/02/07 10:32:04;;;;;;;15.18;8.35;;;;;;;;;;5077172;28;20067;-65
2024/02/07 10:34:33;;;;;;;13.70;8.02;;;;;;;;;;5078027;28;20055;-64
2024/02/07 10:37:00;;;;;;;13.88;7.40;;;;;;;;;;5092244;28;20060;-65
2024/02/07 10:39:27;;;;;;;16.00;8.40;;;;;;;;;;5084931;28;20044;-62
2024/02/07 10:41:57;;;;;;;17.05;8.65;;;;;;;;;;5091432;28;20063;-66
2024/02/07 10:44:26;;;;;;;16.63;8.05;;;;;;;;;;5091163;28;20044;-67
2024/02/07 10:46:58;;;;;;;13.55;7.63;;;;;;;;;;5082901;28;20498;-67
2024/02/07 10:49:25;;;;;;;13.93;7.78;;;;;;;;;;5091776;28;20048;-66
2024/02/07 10:51:52;;;;;;;15.80;8.65;;;;;;;;;;5094445;28;20431;-66
2024/02/07 10:54:19;;;;;;;15.82;8.25;;;;;;;;;;5095198;28;20055;-67
2024/02/07 10:56:46;;;;;;;17.45;9.07;;;;;;;;;;5083708;28;20052;-66
2024/02/07 10:59:13;;;;;;;16.33;8.00;;;;;;;;;;5082920;28;20052;-66
2024/02/07 11:01:42;;;;;;;16.45;8.43;;;;;;;;;;5081129;28;20053;-66
2024/02/07 11:04:09;;;;;;;14.32;7.22;;;;;;;;;;5077556;28;20242;-67
2024/02/07 11:06:36;;;;;;;14.00;7.65;;;;;;;;;;5093227;28;20059;-66
2024/02/07 11:09:06;;;;;;;12.07;7.65;;;;;;;;;;5093814;28;20414;-66
2024/02/07 11:11:33;;;;;;;13.80;7.25;;;;;;;;;;5093411;28;20052;-66
2024/02/07 11:14:00;;;;;;;16.30;7.57;;;;;;;;;;5095237;28;20422;-66
2024/02/07 11:16:26;;;;;;;16.08;8.02;;;;;;;;;;5082573;28;20067;-66
2024/02/07 11:18:55;;;;;;;14.13;7.20;;;;;;;;;;5081292;28;20403;-66
2024/02/07 11:21:22;;;;;;;16.23;8.13;;;;;;;;;;5085408;28;20482;-65
2024/02/07 11:23:50;;;;;;;17.30;8.73;;;;;;;;;;5093904;28;20048;-66
2024/02/07 11:26:18;;;;;;;16.92;8.85;;;;;;;;;;5090019;28;20055;-66
2024/02/07 11:28:46;;;;;;;20.08;9.32;;;;;;;;;;5085789;28;20067;-66
2024/02/07 11:31:13;;;;;;;17.10;8.85;;;;;;;;;;5084905;28;20056;-66
2024/02/07 11:33:43;;;;;;;16.77;8.30;;;;;;;;;;5086456;28;20410;-66
2024/02/07 11:36:16;;;;;;;15.40;7.57;;;;;;;;;;5092055;28;20055;-65
2024/02/07 11:38:47;;;;;;;18.75;9.27;;;;;;;;;;5093251;28;20373;-65
2024/02/07 11:41:16;;;;;;;16.50;9.02;;;;;;;;;;5079298;28;20067;-65
2024/02/07 11:43:43;;;;;;;19.20;9.30;;;;;;;;;;5085592;28;20052;-65
2024/02/07 11:46:12;;;;;;;16.95;9.30;;;;;;;;;;5085746;28;20052;-65
2024/02/07 11:48:40;;;;;;;18.40;9.68;;;;;;;;;;5085680;28;20048;-65
2024/02/07 11:51:07;;;;;;;19.48;9.60;;;;;;;;;;5086778;28;20049;-65
2024/02/07 11:53:38;;;;;;;18.15;9.45;;;;;;;;;;5083566;28;20056;-65
2024/02/07 11:56:09;;;;;;;16.48;8.98;;;;;;;;;;5084613;28;20060;-66
2024/02/07 11:58:36;;;;;;;18.25;8.88;;;;;;;;;;5073978;28;20052;-66
2024/02/07 12:01:03;;;;;;;17.80;9.65;;;;;;;;;;5074079;28;20052;-66
2024/02/07 12:03:30;;;;;;;17.70;9.77;;;;;;;;;;5078049;28;20411;-66
2024/02/07 12:05:57;;;;;;;19.23;9.55;;;;;;;;;;5074138;28;20049;-66
2024/02/07 12:08:24;;;;;;;17.50;9.93;;;;;;;;;;5089901;28;20052;-66
2024/02/07 12:10:52;;;;;;;19.55;9.93;;;;;;;;;;5094299;28;20048;-66
2024/02/07 12:13:19;;;;;;;15.73;9.40;;;;;;;;;;5080773;28;20392;-66
2024/02/07 12:15:46;;;;;;;19.50;9.73;;;;;;;;;;5077927;28;20052;-66
2024/02/07 12:18:13;;;;;;;16.55;8.82;;;;;;;;;;5082758;28;20487;-66
2024/02/07 12:20:39;;;;;;;19.30;9.73;;;;;;;;;;5079855;28;20423;-66
2024/02/07 12:23:06;;;;;;;18.10;8.80;;;;;;;;;;5086082;28;20391;-67
2024/02/07 12:25:33;;;;;;;15.55;9.07;;;;;;;;;;5084845;28;20044;-67
2024/02/07 12:28:10;;;;;;;14.32;8.77;;;;;;;;;;5085477;28;20056;-67
2024/02/07 12:30:37;;;;;;;16.90;8.70;;;;;;;;;;5094188;28;20052;-67
2024/02/07 12:33:04;;;;;;;17.45;8.82;;;;;;;;;;5087446;28;20494;-66
2024/02/07 12:35:31;;;;;;;15.38;8.18;;;;;;;;;;5093809;28;20047;-67
2024/02/07 12:37:59;;;;;;;17.85;8.32;;;;;;;;;;5089293;28;20049;-68
2024/02/07 12:40:29;;;;;;;13.30;8.00;;;;;;;;;;5073233;28;20056;-68
2024/02/07 12:42:56;;;;;;;14.52;8.38;;;;;;;;;;5085657;28;20056;-67
2024/02/07 12:45:24;;;;;;;15.85;8.30;;;;;;;;;;5091998;28;20048;-67
2024/02/07 12:47:52;;;;;;;14.63;7.28;;;;;;;;;;5087286;28;20052;-67
2024/02/07 12:50:19;;;;;;;16.92;8.68;;;;;;;;;;5092943;28;20052;-68
2024/02/07 12:52:46;;;;;;;17.83;8.05;;;;;;;;;;5085962;28;20055;-68
2024/02/07 12:55:13;;;;;;;15.00;7.18;;;;;;;;;;5090510;28;20055;-67
2024/02/07 12:57:42;;;;;;;16.17;8.15;;;;;;;;;;5085448;28;20052;-68
2024/02/07 13:00:10;;;;;;;14.75;7.50;;;;;;;;;;5090005;28;20058;-68
2024/02/07 13:02:45;;;;;;;22.67;8.77;;;;;;;;;;5085693;28;20051;-67
2024/02/07 13:05:12;;;;;;;19.40;7.80;;;;;;;;;;5077949;28;20423;-69
2024/02/07 13:07:39;;;;;;;19.42;7.82;;;;;;;;;;5073126;28;20059;-68
2024/02/07 13:10:06;;;;;;;14.60;8.05;;;;;;;;;;5074214;28;20526;-68
2024/02/07 13:12:35;;;;;;;18.25;7.88;;;;;;;;;;5093317;28;20044;-68
2024/02/07 13:15:02;;;;;;;13.32;7.28;;;;;;;;;;5080460;28;20071;-69
2024/02/07 13:17:29;;;;;;;18.42;7.72;;;;;;;;;;5073518;28;20056;-68
2024/02/07 13:19:57;;;;;;;13.15;7.40;;;;;;;;;;5082622;28;20406;-68
2024/02/07 13:22:24;;;;;;;19.33;8.00;;;;;;;;;;5090227;28;20058;-69
2024/02/07 13:24:51;;;;;;;14.02;7.38;;;;;;;;;;5089424;28;20059;-68
2024/02/07 13:27:17;;;;;;;18.25;7.80;;;;;;;;;;5092792;28;20040;-68
2024/02/07 13:29:45;;;;;;;16.08;7.80;;;;;;;;;;5075934;28;20048;-68
2024/02/07 13:32:13;;;;;;;17.33;7.55;;;;;;;;;;5074917;28;20078;-68
2024/02/07 13:34:41;;;;;;;20.85;8.75;;;;;;;;;;5092350;28;20410;-68
2024/02/07 13:37:09;;;;;;;16.77;7.43;;;;;;;;;;5088024;28;20052;-68
2024/02/07 13:39:36;;;;;;;17.48;8.23;;;;;;;;;;5083938;28;20052;-68
2024/02/07 13:42:03;;;;;;;14.98;7.93;;;;;;;;;;5081310;28;20475;-68
2024/02/07 13:44:32;;;;;;;16.70;7.90;;;;;;;;;;5072292;28;20048;-69
2024/02/07 13:47:01;;;;;;;12.45;6.70;;;;;;;;;;5073005;28;20458;-68
2024/02/07 13:49:27;;;;;;;13.80;7.93;;;;;;;;;;5072645;28;20056;-68
2024/02/07 13:51:54;;;;;;;16.50;7.07;;;;;;;;;;5082929;28;20059;-68
2024/02/07 13:54:22;;;;;;;16.88;7.95;;;;;;;;;;5092308;28;20060;-68
2024/02/07 13:56:49;;;;;;;16.92;7.22;;;;;;;;;;5091201;28;20048;-69
2024/02/07 13:59:16;;;;;;;19.13;7.55;;;;;;;;;;5092479;28;20059;-68
2024/02/07 14:01:43;;;;;;;20.67;8.27;;;;;;;;;;5082429;28;20494;-69
2024/02/07 14:04:10;;;;;;;20.50;7.90;;;;;;;;;;5072592;28;20049;-69
2024/02/07 14:06:36;;;;;;;16.70;6.82;;;;;;;;;;5091555;28;20478;-68
2024/02/07 14:09:03;;;;;;;15.77;7.50;;;;;;;;;;5087983;28;20070;-66
2024/02/07 14:11:32;;;;;;;15.32;7.13;;;;;;;;;;5080272;28;20494;-67
2024/02/07 14:14:01;;;;;;;14.67;6.63;;;;;;;;;;5092162;28;20052;-67
2024/02/07 14:16:28;;;;;;;15.90;7.05;;;;;;;;;;5079750;28;21556;-67
2024/02/07 14:18:54;;;;;;;12.45;6.15;;;;;;;;;;5081059;28;20418;-67
2024/02/07 14:21:21;;;;;;;15.57;6.80;;;;;;;;;;5076987;28;20254;-67
2024/02/07 14:23:49;;;;;;;12.75;5.75;;;;;;;;;;5085070;28;20056;-69
2024/02/07 14:26:16;;;;;;;13.25;6.15;;;;;;;;;;5077172;28;20047;-69
2024/02/07 14:28:44;;;;;;;12.20;6.38;;;;;;;;;;5076160;28;20068;-68
2024/02/07 14:31:11;;;;;;;13.98;5.65;;;;;;;;;;5077561;28;20071;-69
2024/02/07 14:33:38;;;;;;;14.93;6.05;;;;;;;;;;5078384;28;20059;-69
2024/02/07 14:36:06;;;;;;;19.17;6.53;;;;;;;;;;5076257;28;20534;-69
2024/02/07 14:38:32;;;;;;;15.52;6.70;;;;;;;;;;5095397;28;20067;-70
2024/02/07 14:41:00;;;;;;;15.93;7.07;;;;;;;;;;5096221;28;20056;-68
2024/02/07 14:43:27;;;;;;;16.85;6.72;;;;;;;;;;5094362;28;20055;-69
2024/02/07 14:45:55;;;;;;;15.73;6.55;;;;;;;;;;5094589;28;20063;-68
2024/02/07 14:48:22;;;;;;;15.75;6.75;;;;;;;;;;5089602;28;20055;-69
2024/02/07 14:50:48;;;;;;;20.58;6.88;;;;;;;;;;5095573;28;20060;-68
2024/02/07 14:53:15;;;;;;;15.07;6.78;;;;;;;;;;5081907;28;20060;-69
2024/02/07 14:55:42;;;;;;;17.00;6.97;;;;;;;;;;5094818;28;20063;-69
2024/02/07 14:58:09;;;;;;;19.17;6.28;;;;;;;;;;5087454;28;20380;-69
2024/02/07 15:00:37;;;;;;;17.58;6.75;;;;;;;;;;5094102;28;20503;-69
2024/02/07 15:03:06;;;;;;;20.80;11.55;;;;;;;;;;5086105;28;20508;-69
2024/02/07 15:05:33;;;;;;;17.70;9.18;;;;;;;;;;5095502;28;20048;-69
2024/02/07 15:08:00;;;;;;;21.33;10.38;;;;;;;;;;5083988;28;20402;-69
2024/02/07 15:10:27;;;;;;;18.70;9.05;;;;;;;;;;5074973;28;20052;-69
2024/02/07 15:12:54;;;;;;;15.13;7.55;;;;;;;;;;5080645;28;20048;-68
2024/02/07 15:15:20;;;;;;;13.95;7.70;;;;;;;;;;5091942;28;20055;-68
2024/02/07 15:17:48;;;;;;;15.30;7.65;;;;;;;;;;5076558;28;20056;-68
2024/02/07 15:20:17;;;;;;;18.20;6.78;;;;;;;;;;5078620;28;20403;-68
2024/02/07 15:22:44;;;;;;;16.80;6.50;;;;;;;;;;5079433;28;20371;-69
2024/02/07 15:25:11;;;;;;;18.45;9.43;;;;;;;;;;5095168;28;20059;-69
2024/02/07 15:27:38;;;;;;;12.98;6.72;;;;;;;;;;5095047;28;20486;-68
2024/02/07 15:30:05;;;;;;;18.02;6.18;;;;;;;;;;5092354;28;20044;-68
2024/02/07 15:32:32;;;;;;;14.35;6.10;;;;;;;;;;5089684;28;20076;-69
2024/02/07 15:34:59;;;;;;;18.10;7.63;;;;;;;;;;5084933;28;20419;-68
2024/02/07 15:37:28;;;;;;;18.92;7.70;;;;;;;;;;5089417;28;20056;-68
2024/02/07 15:39:54;;;;;;;16.45;7.32;;;;;;;;;;5084486;28;20499;-68
2024/02/07 15:42:21;;;;;;;20.85;7.60;;;;;;;;;;5076797;28;20399;-68